Time;durP1;ratioP1;P1;durP2;ratioP2;P2;SDS_P1;SDS_P2;PMS_P1;PMS_P2;Temp;Humidity;BMP_temperature;BMP_pressure;BME280_temperature;BME280_humidity;BME280_pressure;Samples;Min_cycle;Max_cycle;Signal;HPM_P1;HPM_P2
2022/07/20 00:02:46;;;;;;;1.08;1.05;;;27.70;65.40;28.30;101261.00;;;;5094810;28;20219;-68
2022/07/20 00:05:29;;;;;;;6.65;1.00;;;27.40;66.60;28.30;101261.00;;;;5094804;28;20181;-68
2022/07/20 00:11:40;;;;;;;8.85;3.78;;;27.20;69.70;27.50;101283.00;;;;5095797;28;20250;-68
2022/07/20 00:14:24;;;;;;;4.63;4.10;;;27.00;72.00;27.30;101286.00;;;;5077070;28;20234;-68
2022/07/20 00:17:10;;;;;;;7.93;5.35;;;26.80;74.20;27.00;101291.00;;;;5094466;28;20187;-69
2022/07/20 00:20:11;;;;;;;3.60;3.08;;;26.50;76.90;26.70;101317.00;;;;5077761;28;20593;-68
2022/07/20 00:30:25;;;;;;;11.75;9.45;;;26.00;91.50;26.90;101334.00;;;;5074315;28;20590;-68
2022/07/20 00:33:08;;;;;;;6.85;6.15;;;26.00;95.70;26.30;101308.00;;;;5089786;28;20223;-68
2022/07/20 00:35:59;;;;;;;13.25;9.85;;;25.70;99.90;25.80;101332.00;;;;5077344;28;20515;-68
2022/07/20 00:39:00;;;;;;;18.33;8.38;;;25.50;99.90;25.60;101320.00;;;;5111518;28;20176;-68
2022/07/20 00:41:46;;;;;;;8.27;6.75;;;25.30;99.90;26.00;101321.00;;;;5095714;28;20193;-68
2022/07/20 00:45:25;;;;;;;8.77;2.13;;;25.30;99.90;26.40;101325.00;;;;5111310;28;20201;-68
2022/07/20 00:52:15;;;;;;;2.83;2.65;;;25.30;99.90;26.20;101323.00;;;;5024344;28;20213;-68
2022/07/20 00:55:36;;;;;;;5.47;3.75;;;25.30;99.90;26.00;101283.00;;;;5015250;28;20585;-68
2022/07/20 00:58:42;;;;;;;15.40;8.85;;;25.20;99.90;25.70;101311.00;;;;5016030;28;20693;-68
2022/07/20 01:01:35;;;;;;;2.45;2.30;;;25.10;99.90;25.40;101294.00;;;;5016201;28;20716;-68
2022/07/20 01:04:24;;;;;;;15.40;9.60;;;25.00;99.90;25.50;101306.00;;;;5016224;28;20183;-68
2022/07/20 01:07:13;;;;;;;5.05;4.63;;;24.90;99.90;25.20;101282.00;;;;4999458;28;20194;-68
2022/07/20 01:10:05;;;;;;;25.67;15.40;;;24.70;99.90;24.80;101288.00;;;;5015830;28;20650;-68
2022/07/20 01:12:50;;;;;;;1.50;1.42;;;24.50;99.90;25.20;101290.00;;;;5015327;28;20210;-68
2022/07/20 01:15:55;;;;;;;5.88;4.82;;;24.60;99.90;25.40;101290.00;;;;4999338;28;20196;-68
2022/07/20 01:19:08;;;;;;;8.40;7.60;;;24.70;99.90;25.40;101297.00;;;;5015613;28;20240;-68
2022/07/20 01:22:11;;;;;;;8.45;7.43;;;24.70;99.90;25.30;101286.00;;;;5040775;28;20336;-68
2022/07/20 01:25:17;;;;;;;6.65;6.05;;;24.70;99.90;25.10;101289.00;;;;5055165;28;20704;-68
2022/07/20 01:28:11;;;;;;;8.85;5.85;;;24.50;99.90;24.70;101279.00;;;;5044818;28;20212;-68
2022/07/20 01:31:23;;;;;;;5.40;3.30;;;24.30;99.90;25.10;101291.00;;;;5091975;28;20176;-68
2022/07/20 01:34:14;;;;;;;0.30;0.30;;;24.30;99.90;25.00;101291.00;;;;5111193;28;20197;-68
2022/07/20 01:37:18;;;;;;;2.03;1.92;;;24.50;99.90;25.10;101288.00;;;;5113212;28;20784;-68
2022/07/20 01:40:18;;;;;;;6.05;3.83;;;24.40;99.90;25.20;101276.00;;;;5096252;28;20187;-69
2022/07/20 01:43:02;;;;;;;3.92;3.35;;;24.40;99.90;25.80;101281.00;;;;5114569;28;20650;-69
2022/07/20 01:46:03;;;;;;;13.63;8.00;;;24.70;99.90;25.70;101304.00;;;;5114283;28;20184;-69
2022/07/20 01:48:54;;;;;;;6.00;5.50;;;24.90;99.90;25.20;101286.00;;;;5113288;28;20175;-68
2022/07/20 01:51:38;;;;;;;11.18;8.40;;;24.50;99.90;24.70;101275.00;;;;5096095;28;20202;-69
2022/07/20 01:54:24;;;;;;;3.83;3.33;;;24.20;99.90;24.80;101284.00;;;;5095944;28;20229;-68
2022/07/20 01:57:28;;;;;;;1.30;1.27;;;24.20;99.90;25.00;101294.00;;;;5113204;28;20190;-68
2022/07/20 02:00:22;;;;;;;3.40;2.70;;;24.20;99.90;25.00;101282.00;;;;5092672;28;20535;-68
2022/07/20 02:03:23;;;;;;;12.85;4.10;;;24.10;99.90;24.70;101288.00;;;;5062011;28;20173;-68
2022/07/20 02:06:09;;;;;;;8.68;7.75;;;24.20;99.90;24.90;101282.00;;;;5092339;28;20177;-68
2022/07/20 02:08:53;;;;;;;2.30;2.15;;;24.10;99.90;24.60;101288.00;;;;5092290;28;20167;-68
2022/07/20 02:11:36;;;;;;;5.90;4.32;;;24.10;99.90;24.40;101275.00;;;;5075570;28;20205;-69
2022/07/20 02:14:20;;;;;;;3.17;2.88;;;23.90;99.90;24.30;101273.00;;;;5075785;28;20638;-69
2022/07/20 02:17:24;;;;;;;1.23;1.23;;;23.90;99.90;24.60;101271.00;;;;5092273;28;20193;-69
2022/07/20 02:20:28;;;;;;;14.43;9.85;;;23.90;99.90;24.20;101271.00;;;;5075504;28;20206;-68
2022/07/20 02:23:15;;;;;;;9.75;2.70;;;23.80;99.90;24.30;101267.00;;;;5075047;28;20180;-68
2022/07/20 02:26:00;;;;;;;1.80;1.77;;;23.70;99.90;24.30;101267.00;;;;5075498;28;20198;-68
2022/07/20 02:29:04;;;;;;;1.85;1.75;;;23.70;99.90;24.20;101264.00;;;;5101164;28;20181;-69
2022/07/20 02:31:48;;;;;;;4.82;3.83;;;23.60;99.90;24.60;101263.00;;;;5082323;28;20211;-69
2022/07/20 02:34:33;;;;;;;5.63;4.82;;;23.80;99.90;23.90;101267.00;;;;5095602;28;20219;-68
2022/07/20 02:37:24;;;;;;;3.17;2.97;;;23.70;99.90;24.00;101262.00;;;;5095293;28;20232;-68
2022/07/20 02:40:09;;;;;;;7.13;5.10;;;23.50;99.90;24.20;101284.00;;;;5112179;28;20259;-68
2022/07/20 02:43:10;;;;;;;10.10;8.95;;;23.70;99.90;24.10;101276.00;;;;5095239;28;20665;-68
2022/07/20 02:46:01;;;;;;;8.57;5.25;;;23.60;99.90;23.40;101287.00;;;;5095348;28;20646;-68
2022/07/20 02:49:02;;;;;;;11.90;8.35;;;23.20;99.90;23.50;101301.00;;;;5095298;28;20261;-68
2022/07/20 02:51:35;;;;;;;9.73;7.10;;;23.20;99.90;23.50;101306.00;;;;5095224;28;20296;-68
2022/07/20 02:54:24;;;;;;;4.85;4.38;;;23.20;99.90;23.40;101262.00;;;;5095074;28;20279;-68
2022/07/20 02:57:10;;;;;;;2.38;2.17;;;23.20;99.90;23.50;101292.00;;;;5112580;28;20186;-68
2022/07/20 03:00:14;;;;;;;9.07;7.05;;;23.20;99.90;23.30;101288.00;;;;5112055;28;20225;-68
2022/07/20 03:03:15;;;;;;;19.65;6.97;;;23.00;99.90;23.50;101294.00;;;;5099154;28;20184;-68
2022/07/20 03:06:00;;;;;;;4.07;3.70;;;23.10;99.90;23.80;101297.00;;;;5112218;28;20180;-68
2022/07/20 03:09:03;;;;;;;5.97;3.15;;;23.20;99.90;24.10;101306.00;;;;5095098;28;20180;-69
2022/07/20 03:11:54;;;;;;;6.32;3.22;;;23.30;99.90;23.60;101289.00;;;;5095343;28;20307;-68
2022/07/20 03:14:37;;;;;;;5.07;4.60;;;23.30;99.90;23.20;101290.00;;;;5112232;28;20264;-68
2022/07/20 03:17:23;;;;;;;2.35;2.25;;;23.10;99.90;23.50;101279.00;;;;5095013;28;20184;-68
2022/07/20 03:20:31;;;;;;;3.67;3.40;;;23.10;99.90;23.20;101292.00;;;;5115772;28;20172;-68
2022/07/20 03:23:46;;;;;;;4.07;2.20;;;23.00;99.90;23.00;101287.00;;;;5115903;28;20259;-68
2022/07/20 03:26:52;;;;;;;5.45;3.50;;;22.80;99.90;23.00;101269.00;;;;5116435;28;20173;-68
2022/07/20 03:29:46;;;;;;;4.57;4.20;;;22.80;99.90;22.90;101261.00;;;;5095663;28;20632;-68
2022/07/20 03:32:12;;;;;;;13.60;4.10;;;22.80;99.90;22.90;101261.00;;;;5095485;28;20209;-68
2022/07/20 03:34:58;;;;;;;3.20;2.63;;;22.70;99.90;22.90;101306.00;;;;5095528;28;20184;-69
2022/07/20 03:38:01;;;;;;;4.22;3.65;;;22.80;99.90;22.90;101297.00;;;;5112031;28;20191;-68
2022/07/20 03:41:04;;;;;;;17.10;10.30;;;22.60;99.90;23.30;101320.00;;;;5112309;28;20532;-69
2022/07/20 03:43:59;;;;;;;1.08;1.05;;;22.80;99.90;23.40;101337.00;;;;5094998;28;20244;-68
2022/07/20 03:47:18;;;;;;;3.65;3.40;;;22.90;99.90;23.20;101322.00;;;;5095240;28;20173;-69
2022/07/20 03:50:07;;;;;;;4.95;4.57;;;22.80;99.90;22.70;101320.00;;;;5095270;28;20169;-69
2022/07/20 03:52:43;;;;;;;1.65;1.65;;;22.70;99.90;23.00;101289.00;;;;5079876;28;20675;-68
2022/07/20 03:55:44;;;;;;;0.85;0.73;;;22.60;99.90;22.70;101310.00;;;;5115612;28;20250;-69
2022/07/20 03:58:48;;;;;;;1.77;1.65;;;22.50;99.90;22.50;101321.00;;;;5115262;28;20259;-68
2022/07/20 04:01:49;;;;;;;3.88;2.75;;;22.40;99.90;22.80;101321.00;;;;5097939;28;20192;-68
2022/07/20 04:04:50;;;;;;;0.73;0.73;;;22.50;99.90;23.20;101323.00;;;;5116082;28;20184;-68
2022/07/20 04:07:38;;;;;;;1.50;1.42;;;22.60;99.90;23.00;101326.00;;;;5097836;28;20225;-69
2022/07/20 04:10:22;;;;;;;4.80;4.40;;;22.60;99.90;22.90;101333.00;;;;5102668;28;20554;-68
2022/07/20 04:13:23;;;;;;;10.88;5.13;;;22.60;99.90;23.00;101347.00;;;;5097958;28;20209;-69
2022/07/20 04:16:26;;;;;;;3.88;3.20;;;22.60;99.90;23.00;101324.00;;;;5114945;28;20179;-68
2022/07/20 04:19:35;;;;;;;0.93;0.93;;;22.70;99.90;23.00;101342.00;;;;5097809;28;20184;-69
2022/07/20 04:22:26;;;;;;;2.35;2.17;;;22.60;99.90;23.10;101330.00;;;;5097775;28;20184;-68
2022/07/20 04:25:28;;;;;;;5.45;4.15;;;22.60;99.90;22.80;101351.00;;;;5097677;28;20180;-68
2022/07/20 04:28:14;;;;;;;2.10;1.90;;;22.50;99.90;23.00;101343.00;;;;5097681;28;20215;-68
2022/07/20 04:31:05;;;;;;;8.55;3.83;;;22.50;99.90;22.90;101336.00;;;;5093985;28;20183;-68
2022/07/20 04:34:09;;;;;;;4.40;3.88;;;22.60;99.90;23.70;101342.00;;;;5093966;28;20649;-68
2022/07/20 04:37:13;;;;;;;0.30;0.30;;;22.90;99.90;23.30;101341.00;;;;5095231;28;20573;-68
2022/07/20 04:40:05;;;;;;;7.50;3.60;;;22.90;99.90;22.90;101340.00;;;;5077149;28;20177;-69
2022/07/20 04:42:33;;;;;;;4.53;3.00;;;22.60;99.90;23.60;101350.00;;;;5094259;28;20181;-68
2022/07/20 04:45:20;;;;;;;1.38;1.08;;;22.90;99.90;24.00;101340.00;;;;5093708;28;20183;-69
2022/07/20 04:48:21;;;;;;;5.85;3.90;;;23.20;99.90;23.60;101331.00;;;;5094410;28;20252;-68
2022/07/20 04:51:22;;;;;;;2.15;2.03;;;23.30;99.90;23.10;101336.00;;;;5094937;28;20189;-68
2022/07/20 04:54:28;;;;;;;2.85;2.63;;;23.00;99.90;23.50;101342.00;;;;5077330;28;20192;-68
2022/07/20 04:57:29;;;;;;;3.05;2.85;;;23.00;99.90;23.60;101349.00;;;;5076783;28;20202;-68
2022/07/20 05:00:34;;;;;;;4.28;3.03;;;23.40;99.90;23.60;101388.00;;;;5093561;28;20236;-68
2022/07/20 05:03:35;;;;;;;0.88;0.85;;;23.60;99.90;23.40;101393.00;;;;5110467;28;20186;-68
2022/07/20 05:06:39;;;;;;;7.18;5.13;;;23.20;99.90;23.00;101386.00;;;;5093412;28;20646;-69
2022/07/20 05:09:42;;;;;;;4.25;2.10;;;23.00;99.90;23.50;101418.00;;;;5076822;28;20187;-69
2022/07/20 05:12:43;;;;;;;3.65;3.20;;;23.00;99.90;23.10;101389.00;;;;5093443;28;20213;-68
2022/07/20 05:15:47;;;;;;;5.95;3.42;;;23.10;99.90;23.00;101404.00;;;;5076609;28;20263;-69
2022/07/20 05:18:48;;;;;;;0.50;0.50;;;22.70;99.90;23.80;101391.00;;;;5063553;28;20547;-69
2022/07/20 05:21:41;;;;;;;2.85;2.10;;;23.10;99.90;23.90;101436.00;;;;5094782;28;20258;-68
2022/07/20 05:24:27;;;;;;;0.73;0.73;;;23.40;99.90;23.80;101447.00;;;;5093294;28;20264;-68
2022/07/20 05:27:13;;;;;;;0.85;0.85;;;23.30;99.90;24.20;101470.00;;;;5076523;28;20188;-68
2022/07/20 05:29:59;;;;;;;0.32;0.32;;;23.50;99.90;25.30;101489.00;;;;5081152;28;20184;-69
2022/07/20 05:32:34;;;;;;;2.80;2.58;;;24.20;99.90;23.40;101486.00;;;;5092869;28;20290;-68
2022/07/20 05:35:08;;;;;;;6.95;4.53;;;23.50;99.90;23.00;101494.00;;;;5092619;28;20189;-69
2022/07/20 05:37:52;;;;;;;4.82;4.13;;;23.00;99.90;23.40;101505.00;;;;5092966;28;20636;-69
2022/07/20 05:40:37;;;;;;;1.23;1.20;;;23.00;99.90;23.50;101518.00;;;;5109958;28;20646;-69
2022/07/20 05:43:23;;;;;;;1.80;1.70;;;23.10;99.90;23.60;101524.00;;;;5092881;28;20682;-69
2022/07/20 05:46:08;;;;;;;0.10;0.10;;;23.10;99.90;24.30;101540.00;;;;5092801;28;20182;-69
2022/07/20 05:48:59;;;;;;;0.10;0.10;;;23.40;99.90;24.80;101565.00;;;;5093089;28;20189;-69
2022/07/20 05:51:45;;;;;;;1.73;1.63;;;23.90;99.90;24.30;101550.00;;;;5092869;28;20206;-69
2022/07/20 05:54:31;;;;;;;2.22;1.85;;;23.70;99.90;24.90;101562.00;;;;5092844;28;20184;-68
2022/07/20 05:57:17;;;;;;;8.57;7.40;;;24.20;99.90;23.50;101542.00;;;;5109825;28;20307;-67
2022/07/20 06:00:02;;;;;;;3.60;3.13;;;23.70;99.90;23.30;101518.00;;;;5079896;28;20172;-67
2022/07/20 06:02:47;;;;;;;4.55;4.00;;;23.40;99.90;24.00;101533.00;;;;5075616;28;20552;-67
2022/07/20 06:05:37;;;;;;;4.88;3.95;;;23.50;99.90;24.20;101543.00;;;;5075818;28;20242;-68
2022/07/20 06:08:26;;;;;;;3.42;2.70;;;23.90;99.90;24.60;101545.00;;;;5092516;28;20222;-68
2022/07/20 06:11:18;;;;;;;8.85;6.45;;;24.10;99.90;25.00;101578.00;;;;5076319;28;20608;-68
2022/07/20 06:14:04;;;;;;;3.33;3.05;;;24.50;99.90;24.00;101561.00;;;;5075761;28;20588;-68
2022/07/20 06:16:55;;;;;;;2.30;2.13;;;24.00;99.90;25.10;101599.00;;;;5075227;28;20275;-67
2022/07/20 06:20:07;;;;;;;4.30;2.22;;;24.60;99.90;24.30;101592.00;;;;5092387;28;20169;-67
2022/07/20 06:22:55;;;;;;;4.57;2.75;;;23.90;99.90;24.40;101599.00;;;;5092481;28;20188;-62
2022/07/20 06:25:28;;;;;;;1.88;1.77;;;24.20;99.90;24.60;101557.00;;;;5093629;28;20177;-64
2022/07/20 06:28:14;;;;;;;1.35;1.25;;;24.10;99.90;24.30;101588.00;;;;5109695;28;20244;-65
2022/07/20 06:31:05;;;;;;;6.40;5.32;;;24.20;99.90;23.90;101566.00;;;;5092509;28;20208;-64
2022/07/20 06:33:49;;;;;;;2.35;1.92;;;23.90;99.90;24.30;101577.00;;;;5075633;28;20261;-64
2022/07/20 06:36:35;;;;;;;9.82;4.57;;;24.10;99.90;24.00;101577.00;;;;5093340;28;20272;-64
2022/07/20 06:39:12;;;;;;;8.07;4.45;;;23.90;99.90;24.60;101586.00;;;;5075189;28;20267;-65
2022/07/20 06:42:00;;;;;;;4.50;4.13;;;24.10;99.90;25.40;101596.00;;;;5092123;28;20601;-65
2022/07/20 06:45:03;;;;;;;8.75;3.97;;;24.60;99.90;24.90;101604.00;;;;5092147;28;20191;-65
2022/07/20 06:47:55;;;;;;;9.25;4.72;;;24.30;99.90;24.00;101592.00;;;;5075316;28;20180;-65
2022/07/20 06:50:29;;;;;;;3.63;2.33;;;24.10;99.90;25.00;101601.00;;;;5075717;28;20184;-65
2022/07/20 06:53:23;;;;;;;11.30;4.57;;;24.30;99.90;24.50;101615.00;;;;5075528;28;20210;-65
2022/07/20 06:56:11;;;;;;;9.25;4.55;;;24.10;99.90;25.00;101630.00;;;;5092196;28;20654;-65
2022/07/20 06:59:12;;;;;;;6.47;4.70;;;24.30;99.90;24.10;101627.00;;;;5095843;28;20188;-65
2022/07/20 07:02:13;;;;;;;7.68;5.65;;;24.10;99.90;24.50;101646.00;;;;5096032;28;20198;-64
2022/07/20 07:05:14;;;;;;;2.40;2.15;;;24.20;99.90;24.30;101650.00;;;;5079215;28;20565;-64
2022/07/20 07:08:27;;;;;;;2.50;2.30;;;24.10;99.90;23.80;101651.00;;;;5096046;28;20644;-65
2022/07/20 07:11:12;;;;;;;3.75;3.15;;;23.70;99.90;23.50;101629.00;;;;5034644;28;20277;-67
2022/07/20 07:14:02;;;;;;;3.85;3.45;;;23.40;99.90;23.80;101638.00;;;;5000771;28;20346;-65
2022/07/20 07:16:48;;;;;;;0.57;0.57;;;23.40;99.90;24.10;101684.00;;;;4979648;28;20225;-66
2022/07/20 07:19:39;;;;;;;6.75;3.60;;;23.60;99.90;24.20;101706.00;;;;5017927;28;20198;-66
2022/07/20 07:22:45;;;;;;;2.40;2.20;;;23.80;99.90;25.00;101719.00;;;;5018025;28;20185;-65
2022/07/20 07:25:38;;;;;;;6.90;2.75;;;24.00;99.90;24.60;101716.00;;;;5014109;28;20257;-65
2022/07/20 07:28:38;;;;;;;6.63;3.90;;;24.20;99.90;24.80;101701.00;;;;4980393;28;20662;-65
2022/07/20 07:31:26;;;;;;;4.95;3.40;;;24.30;99.90;24.10;101686.00;;;;5014412;28;20573;-65
2022/07/20 07:34:31;;;;;;;2.33;2.22;;;24.20;99.90;24.10;101632.00;;;;5010089;28;20219;-65
2022/07/20 07:36:57;;;;;;;0.57;0.57;;;23.90;99.90;24.50;101601.00;;;;5029678;28;20658;-64
2022/07/20 07:39:41;;;;;;;4.97;1.95;;;23.90;99.90;24.90;101564.00;;;;5053798;28;20177;-64
2022/07/20 07:42:27;;;;;;;1.10;1.00;;;24.10;99.90;25.20;101523.00;;;;5053483;28;20273;-64
2022/07/20 07:45:28;;;;;;;0.55;0.55;;;24.30;99.90;25.40;101421.00;;;;5056247;28;20261;-64
2022/07/20 07:48:14;;;;;;;0.40;0.40;;;24.40;99.90;25.60;101456.00;;;;5054850;28;20514;-64
2022/07/20 07:50:57;;;;;;;0.95;0.95;;;24.50;99.90;25.00;101446.00;;;;5038471;28;20182;-64
2022/07/20 07:53:43;;;;;;;2.35;1.77;;;24.40;99.90;24.20;101518.00;;;;5054655;28;20197;-64
2022/07/20 07:56:29;;;;;;;2.58;2.17;;;24.00;99.90;23.60;101509.00;;;;5055229;28;20186;-64
2022/07/20 07:59:16;;;;;;;4.57;0.77;;;23.40;99.90;23.70;101531.00;;;;5052535;28;20192;-64
2022/07/20 08:02:01;;;;;;;1.45;1.45;;;23.20;99.90;24.60;101557.00;;;;5053838;28;20182;-64
2022/07/20 08:04:45;;;;;;;0.32;0.32;;;23.50;99.90;24.60;101585.00;;;;5052037;28;20254;-65
2022/07/20 08:07:49;;;;;;;0.25;0.25;;;23.60;99.90;25.10;101583.00;;;;5069163;28;20190;-64
2022/07/20 08:10:36;;;;;;;2.05;1.95;;;23.90;99.90;24.30;101579.00;;;;5048422;28;20315;-64
2022/07/20 08:13:19;;;;;;;0.10;0.10;;;23.80;99.90;24.90;101574.00;;;;5054304;28;20234;-64
2022/07/20 08:16:23;;;;;;;0.10;0.10;;;24.00;99.90;25.10;101558.00;;;;5071479;28;20529;-64
2022/07/20 08:19:09;;;;;;;4.55;2.00;;;24.00;99.90;25.90;101575.00;;;;5050041;28;20171;-64
2022/07/20 08:21:52;;;;;;;2.88;2.22;;;24.60;99.90;26.30;101577.00;;;;5054128;28;20186;-65
2022/07/20 08:24:38;;;;;;;3.05;1.98;;;25.40;99.90;26.00;101582.00;;;;5054373;28;20642;-65
2022/07/20 08:27:24;;;;;;;0.25;0.25;;;25.20;99.90;27.00;101637.00;;;;5070822;28;20280;-65
2022/07/20 08:30:09;;;;;;;1.38;1.27;;;25.80;99.90;24.70;101629.00;;;;5069539;28;20173;-64
2022/07/20 08:32:52;;;;;;;1.20;0.95;;;24.80;99.90;24.50;101637.00;;;;5070513;28;20241;-64
2022/07/20 08:35:54;;;;;;;3.30;2.85;;;24.30;99.90;24.90;101647.00;;;;5053999;28;20535;-64
2022/07/20 08:38:40;;;;;;;0.82;0.57;;;24.20;99.90;23.90;101627.00;;;;5055084;28;20583;-64
2022/07/20 08:41:34;;;;;;;0.10;0.10;;;23.50;99.90;24.10;101594.00;;;;5070541;28;20209;-64
2022/07/20 08:44:28;;;;;;;0.10;0.10;;;23.50;99.90;24.80;101653.00;;;;5053479;28;20233;-64
2022/07/20 08:47:13;;;;;;;1.58;0.50;;;23.80;99.90;25.20;101670.00;;;;5068212;28;20226;-64
2022/07/20 08:50:00;;;;;;;0.30;0.30;;;24.10;99.90;26.00;101677.00;;;;5053905;28;20655;-64
2022/07/20 08:53:03;;;;;;;0.20;0.20;;;24.60;99.90;24.20;101652.00;;;;5053683;28;20282;-64
2022/07/20 08:55:50;;;;;;;0.10;0.10;;;23.90;99.90;25.20;101662.00;;;;5065943;28;20609;-64
2022/07/20 08:58:51;;;;;;;0.22;0.22;;;24.20;99.90;25.00;101654.00;;;;5070350;28;20174;-65
2022/07/20 09:02:03;;;;;;;6.82;1.67;;;24.30;99.90;24.20;101662.00;;;;5054368;28;20272;-65
2022/07/20 09:04:55;;;;;;;0.38;0.38;;;24.20;99.90;23.70;101630.00;;;;5053614;28;20214;-64
2022/07/20 09:07:49;;;;;;;0.57;0.57;;;23.70;99.90;23.80;101632.00;;;;5070023;28;20209;-65
2022/07/20 09:10:37;;;;;;;0.90;0.90;;;23.50;99.90;25.00;101669.00;;;;5051806;28;20190;-65
2022/07/20 09:13:23;;;;;;;0.77;0.77;;;23.90;99.90;25.40;101681.00;;;;5053554;28;20600;-65
2022/07/20 09:16:10;;;;;;;1.17;1.08;;;24.40;99.90;24.30;101674.00;;;;5052199;28;20191;-65
2022/07/20 09:23:06;;;;;;;3.30;0.93;;;23.80;99.90;24.20;101679.00;;;;4993024;28;20200;-65
2022/07/20 09:25:34;;;;;;;0.30;0.30;;;23.90;99.90;23.90;101667.00;;;;4976632;28;20737;-65
2022/07/20 09:28:17;;;;;;;0.30;0.30;;;23.70;99.90;24.80;101660.00;;;;4976765;28;20330;-65
2022/07/20 09:31:35;;;;;;;0.25;0.25;;;23.90;99.90;24.50;101654.00;;;;4992879;28;20191;-65
2022/07/20 09:34:37;;;;;;;0.40;0.40;;;24.20;99.90;24.00;101647.00;;;;5012524;28;20206;-65
2022/07/20 09:42:16;;;;;;;0.20;0.20;;;23.20;99.90;24.40;101664.00;;;;4961592;28;20209;-65
2022/07/20 09:45:28;;;;;;;0.30;0.30;;;23.70;99.90;24.20;101684.00;;;;4940695;28;20301;-65
2022/07/20 09:48:21;;;;;;;0.85;0.85;;;23.90;99.90;24.10;101691.00;;;;4957906;28;20197;-64
2022/07/20 09:51:33;;;;;;;0.40;0.40;;;23.90;99.90;25.90;101681.00;;;;4957141;28;20226;-67
2022/07/20 09:54:15;;;;;;;1.42;1.33;;;24.50;99.90;24.10;101680.00;;;;4956212;28;20700;-67
2022/07/20 09:57:07;;;;;;;1.08;1.00;;;24.40;99.90;23.80;101677.00;;;;4956278;28;20204;-65
2022/07/20 10:00:20;;;;;;;0.82;0.80;;;23.70;99.90;24.30;101669.00;;;;4955167;28;20204;-65
2022/07/20 10:03:06;;;;;;;4.15;3.30;;;23.90;99.90;23.00;101649.00;;;;4961657;28;20208;-65
2022/07/20 10:05:48;;;;;;;0.65;0.65;;;23.30;99.90;22.80;101659.00;;;;4949328;28;20200;-66
2022/07/20 10:09:19;;;;;;;1.23;1.23;;;22.90;99.90;23.60;101652.00;;;;4974866;28;20181;-66
2022/07/20 10:11:53;;;;;;;0.88;0.88;;;23.30;99.90;24.00;101650.00;;;;4994595;28;20219;-66
2022/07/20 10:14:35;;;;;;;0.88;0.88;;;23.60;99.90;25.70;101637.00;;;;4978287;28;20196;-66
2022/07/20 10:17:18;;;;;;;0.10;0.10;;;24.60;99.90;26.00;101649.00;;;;4978370;28;20617;-66
2022/07/20 10:20:08;;;;;;;0.25;0.25;;;25.10;99.90;25.90;101671.00;;;;5051525;28;20240;-65
2022/07/20 10:33:48;;;;;;;0.75;0.75;;;23.90;99.90;24.40;101651.00;;;;5123409;27;20880;-65
2022/07/20 10:36:43;;;;;;;0.77;0.77;;;24.20;99.90;27.00;101677.00;;;;5069183;28;20649;-66
2022/07/20 10:39:49;;;;;;;1.45;1.35;;;25.60;99.90;26.80;101688.00;;;;5069582;28;20260;-66
2022/07/20 10:42:41;;;;;;;0.20;0.20;;;26.40;99.90;26.40;101701.00;;;;5102853;28;20192;-66
2022/07/20 10:45:34;;;;;;;3.80;2.75;;;26.20;99.90;27.50;101730.00;;;;5086511;28;20315;-66
2022/07/20 10:48:27;;;;;;;5.57;3.85;;;26.60;99.90;26.50;101702.00;;;;5086104;28;20750;-66
2022/07/20 10:51:22;;;;;;;3.13;2.50;;;26.30;99.90;24.80;101658.00;;;;5070024;28;20213;-66
2022/07/20 10:54:33;;;;;;;0.25;0.25;;;25.00;99.90;27.10;101689.00;;;;5071847;28;20679;-66
2022/07/20 10:57:52;;;;;;;1.88;1.75;;;25.80;99.90;28.30;101736.00;;;;5085795;28;20184;-67
2022/07/20 11:00:59;;;;;;;4.07;2.75;;;27.20;99.90;26.50;101721.00;;;;5070614;28;20182;-67
2022/07/20 11:03:50;;;;;;;0.52;0.43;;;26.80;99.90;27.70;101732.00;;;;5050383;28;20269;-67
2022/07/20 11:06:46;;;;;;;0.10;0.10;;;26.80;99.90;29.20;101750.00;;;;5032285;28;20200;-67
2022/07/20 11:09:48;;;;;;;0.75;0.57;;;27.80;99.90;28.70;101756.00;;;;5065586;28;20178;-65
2022/07/20 11:12:58;;;;;;;0.47;0.30;;;28.40;99.90;26.70;101702.00;;;;5049668;28;20230;-67
2022/07/20 11:15:49;;;;;;;0.73;0.52;;;26.60;99.90;26.60;101692.00;;;;5065406;28;20183;-67
2022/07/20 11:18:35;;;;;;;0.30;0.30;;;26.40;99.90;28.20;101718.00;;;;5065242;28;20179;-68
2022/07/20 11:21:32;;;;;;;0.10;0.10;;;26.90;99.90;28.00;101727.00;;;;5049547;28;20629;-68
2022/07/20 11:24:38;;;;;;;1.25;1.10;;;26.90;99.90;26.40;101740.00;;;;5048446;28;20179;-68
2022/07/20 11:27:59;;;;;;;1.38;1.27;;;26.80;99.90;26.30;101724.00;;;;5049629;28;20829;-67
2022/07/20 11:31:09;;;;;;;0.30;0.30;;;25.70;99.90;25.70;101717.00;;;;5048455;28;20169;-67
2022/07/20 11:33:55;;;;;;;0.95;0.95;;;25.40;99.90;25.00;101701.00;;;;5048674;28;20210;-67
2022/07/20 11:39:45;;;;;;;2.78;2.50;;;25.20;99.90;25.10;101706.00;;;;5049397;28;20198;-67
2022/07/20 11:43:11;;;;;;;10.15;1.70;;;25.10;99.90;26.30;101740.00;;;;5048651;28;20178;-67
2022/07/20 11:46:26;;;;;;;3.00;1.67;;;25.70;99.90;25.70;101748.00;;;;5034899;28;20198;-67
2022/07/20 11:49:32;;;;;;;5.40;3.30;;;25.50;99.90;24.70;101731.00;;;;5034864;28;20262;-67
2022/07/20 11:52:54;;;;;;;6.03;2.80;;;25.00;99.90;23.70;101695.00;;;;5035921;28;20630;-70
2022/07/20 11:56:14;;;;;;;5.00;3.25;;;24.00;99.90;23.20;101697.00;;;;5021915;28;20186;-70
2022/07/20 11:59:16;;;;;;;17.75;11.60;;;23.50;99.90;24.90;101685.00;;;;5035045;28;20182;-67
2022/07/20 12:02:21;;;;;;;0.35;0.35;;;23.90;99.90;25.30;101675.00;;;;5035589;28;20192;-70
2022/07/20 12:05:39;;;;;;;0.30;0.30;;;24.50;99.90;26.20;101693.00;;;;5034491;28;20236;-70
2022/07/20 12:09:05;;;;;;;3.78;1.20;;;24.90;99.90;24.80;101655.00;;;;5035846;28;20256;-70
2022/07/20 12:12:44;;;;;;;0.20;0.20;;;24.70;99.90;26.20;101662.00;;;;5034389;28;20199;-70
2022/07/20 12:16:02;;;;;;;0.85;0.82;;;25.20;99.90;25.90;101689.00;;;;5034318;28;20190;-70
2022/07/20 12:19:26;;;;;;;1.65;1.55;;;25.60;99.90;25.30;101660.00;;;;5050532;28;20656;-70
2022/07/20 12:23:30;;;;;;;0.70;0.70;;;25.00;99.90;26.10;101679.00;;;;5035503;28;20197;-70
2022/07/20 12:26:37;;;;;;;4.40;2.78;;;25.00;99.90;25.30;101679.00;;;;5034469;28;20245;-70
2022/07/20 12:29:31;;;;;;;1.45;1.35;;;25.20;99.90;25.40;101702.00;;;;5034630;28;20234;-70
2022/07/20 12:32:55;;;;;;;3.17;2.38;;;25.20;99.90;26.00;101744.00;;;;5035057;28;20215;-70
2022/07/20 12:36:03;;;;;;;2.40;2.22;;;25.60;99.90;25.40;101726.00;;;;5034766;28;20260;-69
2022/07/20 12:39:14;;;;;;;2.55;2.25;;;25.10;99.90;26.40;101737.00;;;;5034086;28;20179;-69
2022/07/20 12:42:18;;;;;;;5.70;4.35;;;25.60;99.90;25.20;101720.00;;;;5033900;28;20178;-69
2022/07/20 12:45:38;;;;;;;0.73;0.73;;;25.40;99.90;26.30;101718.00;;;;5034123;28;20206;-69
2022/07/20 12:48:43;;;;;;;0.75;0.75;;;25.30;99.90;27.10;101738.00;;;;5033948;28;20245;-70
2022/07/20 12:51:51;;;;;;;0.20;0.20;;;25.80;99.90;25.70;101712.00;;;;5017194;28;20625;-70
2022/07/20 12:54:54;;;;;;;0.63;0.63;;;25.50;99.90;26.20;101729.00;;;;5033042;28;20696;-69
2022/07/20 12:58:08;;;;;;;0.82;0.82;;;25.50;99.90;25.50;101687.00;;;;5033573;28;20205;-70
2022/07/20 13:00:58;;;;;;;8.00;5.10;;;25.30;99.90;25.60;101665.00;;;;5034030;28;20185;-69
2022/07/20 13:03:59;;;;;;;1.35;1.25;;;24.90;99.90;24.30;101663.00;;;;5033233;28;20196;-69
2022/07/20 13:07:01;;;;;;;0.35;0.35;;;24.40;99.90;24.90;101691.00;;;;5034562;28;20181;-69
2022/07/20 13:10:04;;;;;;;1.75;1.65;;;24.50;99.90;25.50;101685.00;;;;5033329;28;20527;-69
2022/07/20 13:13:38;;;;;;;0.65;0.65;;;24.90;99.90;26.70;101691.00;;;;5033460;28;20202;-69
2022/07/20 13:16:44;;;;;;;3.65;0.93;;;25.50;99.90;25.70;101759.00;;;;5033336;28;20702;-69
2022/07/20 13:20:08;;;;;;;1.48;1.38;;;25.70;99.90;25.80;101746.00;;;;5034558;28;20163;-69
2022/07/20 13:23:27;;;;;;;4.38;2.22;;;25.20;99.90;26.20;101746.00;;;;5033311;28;20581;-69
2022/07/20 13:26:28;;;;;;;0.10;0.10;;;25.30;99.90;25.70;101767.00;;;;5033147;28;20270;-69
2022/07/20 13:29:34;;;;;;;0.10;0.10;;;25.40;99.90;25.60;101762.00;;;;5033076;28;20178;-69
2022/07/20 13:32:35;;;;;;;1.98;1.27;;;25.20;99.90;25.50;101731.00;;;;5032126;28;20229;-69